Time;durP1;ratioP1;P1;durP2;ratioP2;P2;SDS_P1;SDS_P2;PMS_P1;PMS_P2;Temp;Humidity;BMP_temperature;BMP_pressure;BME280_temperature;BME280_humidity;BME280_pressure;Samples;Min_cycle;Max_cycle;Signal;HPM_P1;HPM_P2
2024/03/12 00:00:28;;;;;;;5.03;3.55;;;22.70;99.90;;;;;;5073030;28;20020;-58
2024/03/12 00:02:55;;;;;;;5.32;3.45;;;22.70;99.90;;;;;;5073013;28;20451;-57
2024/03/12 00:05:21;;;;;;;5.07;2.88;;;22.60;99.90;;;;;;5072923;28;20376;-55
2024/03/12 00:07:48;;;;;;;3.53;2.45;;;22.70;99.90;;;;;;5071119;28;20024;-57
2024/03/12 00:10:25;;;;;;;4.55;2.90;;;22.70;99.90;;;;;;5043230;28;20029;-58
2024/03/12 00:12:51;;;;;;;8.23;3.40;;;22.60;99.90;;;;;;5068403;28;20033;-58
2024/03/12 00:15:22;;;;;;;5.18;3.40;;;22.70;99.90;;;;;;5073162;28;20334;-55
2024/03/12 00:17:50;;;;;;;6.35;3.40;;;22.60;99.90;;;;;;5072880;28;20464;-60
2024/03/12 00:20:17;;;;;;;6.22;2.80;;;22.60;99.90;;;;;;5045584;28;20496;-55
2024/03/12 00:22:46;;;;;;;9.70;3.47;;;22.60;99.90;;;;;;5073139;28;20020;-51
2024/03/12 00:25:19;;;;;;;8.90;3.80;;;22.60;99.90;;;;;;5059748;28;20506;-56
2024/03/12 00:27:46;;;;;;;17.63;4.00;;;22.50;99.90;;;;;;5064922;28;20029;-54
2024/03/12 00:30:13;;;;;;;16.83;4.65;;;22.60;99.90;;;;;;5050192;28;20036;-54
2024/03/12 00:32:43;;;;;;;12.55;3.75;;;22.60;99.90;;;;;;5057824;28;20033;-54
2024/03/12 00:35:12;;;;;;;9.32;2.97;;;22.60;99.90;;;;;;5072512;28;20025;-54
2024/03/12 00:37:38;;;;;;;11.30;3.28;;;22.60;99.90;;;;;;5065727;28;20094;-52
2024/03/12 00:40:12;;;;;;;11.55;3.83;;;22.60;99.90;;;;;;5072894;28;20052;-56
2024/03/12 00:42:41;;;;;;;10.35;3.10;;;22.60;99.90;;;;;;5059279;28;20632;-55
2024/03/12 00:45:11;;;;;;;7.20;2.80;;;22.60;99.90;;;;;;5072348;28;20032;-53
2024/03/12 00:47:43;;;;;;;5.97;2.65;;;22.60;99.90;;;;;;5072122;28;20067;-55
2024/03/12 00:50:11;;;;;;;9.68;3.10;;;22.50;99.90;;;;;;5071551;28;20035;-52
2024/03/12 00:52:38;;;;;;;11.65;3.42;;;22.50;99.90;;;;;;5057280;28;20023;-52
2024/03/12 00:55:05;;;;;;;8.88;2.97;;;22.50;99.90;;;;;;5068512;28;20028;-52
2024/03/12 00:57:34;;;;;;;8.38;2.88;;;22.50;99.90;;;;;;5054158;28;20039;-53
2024/03/12 01:00:03;;;;;;;9.95;3.40;;;22.50;99.90;;;;;;5072065;28;20025;-53
2024/03/12 01:02:32;;;;;;;8.13;2.92;;;22.50;99.90;;;;;;5066763;22;20114;-53
2024/03/12 01:04:59;;;;;;;6.75;2.88;;;22.50;99.90;;;;;;5034290;28;20025;-48
2024/03/12 01:07:25;;;;;;;7.13;3.30;;;22.50;99.90;;;;;;5051915;28;20035;-50
2024/03/12 01:09:51;;;;;;;5.68;3.05;;;22.50;99.90;;;;;;5017607;28;20029;-48
2024/03/12 01:12:17;;;;;;;6.93;2.75;;;22.50;99.90;;;;;;5051668;28;20032;-44
2024/03/12 01:14:44;;;;;;;5.57;2.50;;;22.50;99.90;;;;;;5001290;28;20167;-46
2024/03/12 01:17:10;;;;;;;7.28;2.85;;;22.40;99.90;;;;;;5051700;28;20028;-46
2024/03/12 01:19:36;;;;;;;6.07;3.03;;;22.50;99.90;;;;;;5033948;28;20029;-46
2024/03/12 01:22:04;;;;;;;13.45;3.13;;;22.40;99.90;;;;;;5051715;28;20102;-46
2024/03/12 01:24:30;;;;;;;8.32;3.05;;;22.40;99.90;;;;;;5052045;28;20162;-47
2024/03/12 01:26:56;;;;;;;16.40;3.13;;;22.40;99.90;;;;;;5051579;28;20116;-45
2024/03/12 01:29:22;;;;;;;9.57;2.42;;;22.40;99.90;;;;;;5051793;28;20115;-46
2024/03/12 01:31:50;;;;;;;8.38;2.88;;;22.40;99.90;;;;;;5051079;28;20102;-44
2024/03/12 01:34:18;;;;;;;7.00;2.83;;;22.40;99.90;;;;;;5033921;28;20082;-47
2024/03/12 01:36:47;;;;;;;6.18;3.08;;;22.40;99.90;;;;;;5051539;28;20040;-46
2024/03/12 01:39:16;;;;;;;5.78;2.80;;;22.40;99.90;;;;;;5051714;28;20466;-45
2024/03/12 01:41:45;;;;;;;6.10;2.40;;;22.40;99.90;;;;;;5051279;28;20052;-45
2024/03/12 01:44:11;;;;;;;5.60;2.85;;;22.40;99.90;;;;;;5051566;28;20057;-46
2024/03/12 01:46:38;;;;;;;3.78;2.50;;;22.40;99.90;;;;;;5055065;28;20420;-47
2024/03/12 01:49:08;;;;;;;4.05;2.85;;;22.40;99.90;;;;;;5037837;28;20457;-47
2024/03/12 01:51:35;;;;;;;10.23;2.70;;;22.40;99.90;;;;;;5055750;28;20404;-44
2024/03/12 01:54:03;;;;;;;7.10;2.50;;;22.30;99.90;;;;;;5038237;28;20079;-44
2024/03/12 01:56:32;;;;;;;9.00;2.65;;;22.30;99.90;;;;;;5055593;28;20557;-46
2024/03/12 01:58:58;;;;;;;3.75;2.15;;;22.30;99.90;;;;;;5055839;28;20064;-47
2024/03/12 02:01:27;;;;;;;8.20;2.97;;;22.30;99.90;;;;;;5054797;28;20041;-46
2024/03/12 02:03:54;;;;;;;6.35;2.40;;;22.30;99.90;;;;;;5055216;28;20100;-46
2024/03/12 02:06:21;;;;;;;8.48;2.75;;;22.30;99.90;;;;;;5055420;28;20035;-46
2024/03/12 02:08:48;;;;;;;7.97;3.03;;;22.30;99.90;;;;;;5055657;28;20033;-46
2024/03/12 02:11:14;;;;;;;4.80;2.40;;;22.30;99.90;;;;;;5055398;28;20033;-44
2024/03/12 02:13:41;;;;;;;6.03;2.38;;;22.30;99.90;;;;;;5055026;28;20539;-47
2024/03/12 02:16:08;;;;;;;4.78;2.67;;;22.30;99.90;;;;;;5055585;28;20381;-46
2024/03/12 02:18:34;;;;;;;6.95;2.67;;;22.30;99.90;;;;;;5055057;28;20024;-46
2024/03/12 02:21:00;;;;;;;7.13;2.38;;;22.30;99.90;;;;;;5055455;28;20384;-46
2024/03/12 02:23:40;;;;;;;6.93;2.40;;;22.20;99.90;;;;;;5035821;28;20107;-48
2024/03/12 02:26:06;;;;;;;6.43;2.90;;;22.20;99.90;;;;;;5055068;28;20029;-48
2024/03/12 02:28:32;;;;;;;4.95;2.67;;;22.20;99.90;;;;;;5055130;28;20092;-50
2024/03/12 02:30:59;;;;;;;5.45;2.22;;;22.20;99.90;;;;;;5055334;28;20055;-49
2024/03/12 02:33:25;;;;;;;4.80;2.17;;;22.20;99.90;;;;;;5054721;28;20017;-49
2024/03/12 02:35:51;;;;;;;4.35;1.95;;;22.20;99.90;;;;;;5054795;28;20033;-48
2024/03/12 02:38:18;;;;;;;3.70;2.28;;;22.20;99.90;;;;;;5055001;28;20369;-47
2024/03/12 02:40:45;;;;;;;5.93;2.47;;;22.20;99.90;;;;;;5054159;28;20358;-47
2024/03/12 02:43:13;;;;;;;3.63;2.47;;;22.20;99.90;;;;;;5054852;28;20061;-47
2024/03/12 02:45:39;;;;;;;8.18;2.33;;;22.20;99.90;;;;;;5054423;28;20036;-49
2024/03/12 02:48:06;;;;;;;4.32;2.42;;;22.10;99.90;;;;;;5036561;28;20036;-48
2024/03/12 02:50:32;;;;;;;9.88;2.95;;;22.10;99.90;;;;;;5054562;28;20013;-46
2024/03/12 02:52:58;;;;;;;3.92;2.42;;;22.10;99.90;;;;;;5049381;28;20029;-45
2024/03/12 02:55:24;;;;;;;6.03;2.58;;;22.10;99.90;;;;;;5054290;28;20393;-45
2024/03/12 02:57:50;;;;;;;3.58;2.35;;;22.10;99.90;;;;;;5054145;28;20031;-45
2024/03/12 03:00:16;;;;;;;3.63;2.40;;;22.10;99.90;;;;;;5054359;28;20472;-45
2024/03/12 03:02:43;;;;;;;3.90;2.03;;;22.10;99.90;;;;;;5054029;28;20047;-45
2024/03/12 03:05:09;;;;;;;3.58;2.00;;;22.10;99.90;;;;;;5054431;28;20075;-45
2024/03/12 03:07:36;;;;;;;7.00;2.78;;;22.00;99.90;;;;;;5054173;28;20112;-45
2024/03/12 03:10:03;;;;;;;4.22;2.20;;;22.00;99.90;;;;;;5054116;28;20025;-45
2024/03/12 03:12:29;;;;;;;3.67;2.20;;;22.00;99.90;;;;;;5054065;28;20107;-46
2024/03/12 03:14:55;;;;;;;5.68;2.63;;;22.00;99.90;;;;;;5054149;28;20151;-45
2024/03/12 03:17:21;;;;;;;5.88;2.13;;;22.00;99.90;;;;;;5053955;28;20029;-46
2024/03/12 03:19:50;;;;;;;4.07;2.08;;;21.90;99.90;;;;;;5053495;28;20369;-45
2024/03/12 03:22:16;;;;;;;6.40;2.92;;;21.90;99.90;;;;;;5054017;28;20033;-45
2024/03/12 03:24:42;;;;;;;4.88;2.40;;;21.90;99.90;;;;;;5053443;28;20492;-46
2024/03/12 03:27:09;;;;;;;6.72;2.70;;;21.90;99.90;;;;;;5050439;28;20045;-46
2024/03/12 03:29:37;;;;;;;3.88;2.33;;;21.90;99.90;;;;;;5038876;28;20029;-46
2024/03/12 03:32:06;;;;;;;4.35;2.40;;;21.90;99.90;;;;;;5042642;28;20108;-46
2024/03/12 03:34:32;;;;;;;4.45;2.40;;;21.80;99.90;;;;;;5044374;28;20014;-46
2024/03/12 03:36:59;;;;;;;5.35;2.38;;;21.80;99.90;;;;;;5024476;28;20114;-46
2024/03/12 03:39:26;;;;;;;5.78;2.88;;;21.80;99.90;;;;;;5041974;28;20060;-44
2024/03/12 03:41:52;;;;;;;4.63;2.60;;;21.80;99.90;;;;;;5026377;28;20022;-43
2024/03/12 03:44:18;;;;;;;4.75;2.53;;;21.80;99.90;;;;;;5036112;28;20045;-44
2024/03/12 03:46:45;;;;;;;4.45;3.00;;;21.70;99.90;;;;;;5032925;28;20405;-45
2024/03/12 03:49:10;;;;;;;7.38;3.13;;;21.80;99.90;;;;;;5033719;28;20044;-45
2024/03/12 03:51:37;;;;;;;5.65;3.10;;;21.70;99.90;;;;;;5015872;28;20481;-45
2024/03/12 03:54:02;;;;;;;4.00;2.53;;;21.70;99.90;;;;;;5033592;28;20025;-45
2024/03/12 03:56:31;;;;;;;3.92;2.60;;;21.70;99.90;;;;;;5033643;28;20496;-45
2024/03/12 03:59:00;;;;;;;3.60;2.80;;;21.70;99.90;;;;;;5033750;28;20021;-46
2024/03/12 04:01:28;;;;;;;7.28;3.30;;;21.70;99.90;;;;;;5013109;28;20049;-45
2024/03/12 04:03:55;;;;;;;3.03;2.22;;;21.70;99.90;;;;;;5014039;28;20060;-46
2024/03/12 04:06:22;;;;;;;3.13;2.50;;;21.70;99.90;;;;;;5012599;28;20117;-46
2024/03/12 04:08:53;;;;;;;4.43;2.60;;;21.70;99.90;;;;;;5013370;28;20029;-46
2024/03/12 04:11:22;;;;;;;6.15;3.17;;;21.60;99.90;;;;;;5013750;28;20022;-46
2024/03/12 04:13:52;;;;;;;4.63;2.60;;;21.60;99.90;;;;;;5012586;28;20029;-45
2024/03/12 04:16:18;;;;;;;3.92;3.00;;;21.60;99.90;;;;;;5013687;28;20161;-45
2024/03/12 04:18:44;;;;;;;5.35;3.78;;;21.60;99.90;;;;;;5012606;28;20029;-45
2024/03/12 04:21:13;;;;;;;7.00;3.17;;;21.50;99.90;;;;;;5013622;28;20034;-45
2024/03/12 04:23:42;;;;;;;5.60;3.67;;;21.50;99.90;;;;;;5013711;28;20455;-45
2024/03/12 04:26:08;;;;;;;4.68;3.20;;;21.60;99.90;;;;;;5013466;28;20041;-45
2024/03/12 04:28:36;;;;;;;4.35;2.78;;;21.50;99.90;;;;;;5013498;28;20390;-46
2024/03/12 04:31:02;;;;;;;5.15;3.67;;;21.50;99.90;;;;;;5013418;28;20021;-45
2024/03/12 04:33:27;;;;;;;5.28;3.13;;;21.50;99.90;;;;;;5013410;28;20359;-46
2024/03/12 04:35:54;;;;;;;4.95;3.38;;;21.50;99.90;;;;;;5013335;28;20044;-45
2024/03/12 04:38:20;;;;;;;4.32;2.85;;;21.50;99.90;;;;;;4995642;28;20029;-45
2024/03/12 04:40:50;;;;;;;6.18;3.65;;;21.50;99.90;;;;;;5012112;28;20025;-45
2024/03/12 04:43:17;;;;;;;5.40;3.38;;;21.50;99.90;;;;;;5012472;28;20425;-46
2024/03/12 04:45:43;;;;;;;5.80;3.80;;;21.40;99.90;;;;;;5011918;28;20030;-46
2024/03/12 04:48:11;;;;;;;4.00;3.42;;;21.40;99.90;;;;;;5013013;28;20122;-46
2024/03/12 04:50:37;;;;;;;8.77;3.67;;;21.40;99.90;;;;;;5013007;28;20033;-46
2024/03/12 04:53:04;;;;;;;5.28;3.53;;;21.40;99.90;;;;;;5022429;28;20112;-45
2024/03/12 04:55:34;;;;;;;6.57;3.17;;;21.40;99.90;;;;;;5032694;28;20025;-45
2024/03/12 04:58:04;;;;;;;7.10;3.53;;;21.40;99.90;;;;;;5047673;28;20029;-45
2024/03/12 05:00:30;;;;;;;5.78;3.55;;;21.40;99.90;;;;;;5033192;28;20025;-45
2024/03/12 05:02:56;;;;;;;5.57;3.55;;;21.40;99.90;;;;;;5051530;28;20032;-46
2024/03/12 05:05:23;;;;;;;6.40;4.07;;;21.40;99.90;;;;;;5052407;28;20017;-45
2024/03/12 05:07:50;;;;;;;7.30;3.55;;;21.40;99.90;;;;;;5052491;28;20035;-46
2024/03/12 05:10:16;;;;;;;5.15;3.70;;;21.40;99.90;;;;;;5052782;28;20025;-46
2024/03/12 05:12:43;;;;;;;4.15;3.30;;;21.30;99.90;;;;;;5052372;28;20493;-46
2024/03/12 05:15:11;;;;;;;4.45;3.55;;;21.30;99.90;;;;;;5034266;28;20473;-45
2024/03/12 05:17:40;;;;;;;4.63;3.45;;;21.30;99.90;;;;;;5034361;28;20032;-46
2024/03/12 05:20:09;;;;;;;5.85;4.18;;;21.30;99.90;;;;;;5051447;28;20381;-46
2024/03/12 05:22:38;;;;;;;6.63;3.97;;;21.30;99.90;;;;;;5052301;28;20093;-45
2024/03/12 05:25:09;;;;;;;4.53;3.20;;;21.30;99.90;;;;;;5052076;28;20025;-46
2024/03/12 05:27:37;;;;;;;4.57;3.67;;;21.30;99.90;;;;;;5035194;28;20385;-45
2024/03/12 05:30:15;;;;;;;5.82;4.07;;;21.30;99.90;;;;;;5018244;28;20021;-45
2024/03/12 05:32:47;;;;;;;8.65;4.53;;;21.30;99.90;;;;;;5052165;28;20612;-45
2024/03/12 05:35:29;;;;;;;6.60;4.07;;;21.30;99.90;;;;;;5052288;28;20486;-45
2024/03/12 05:41:14;;;;;;;6.38;4.15;;;21.20;99.90;;;;;;5052113;28;20036;-45
2024/03/12 05:49:10;;;;;;;8.27;4.97;;;21.20;99.90;;;;;;5052142;28;20060;-45
2024/03/12 05:51:37;;;;;;;8.02;4.72;;;21.20;99.90;;;;;;5051910;28;20020;-45
2024/03/12 05:54:05;;;;;;;8.05;4.85;;;21.20;99.90;;;;;;5051882;28;20037;-45
2024/03/12 05:56:31;;;;;;;10.93;5.07;;;21.20;99.90;;;;;;5051968;28;20033;-45
2024/03/12 05:58:58;;;;;;;10.73;5.63;;;21.20;99.90;;;;;;5051743;28;20072;-45
2024/03/12 06:01:24;;;;;;;7.82;4.97;;;21.20;99.90;;;;;;5051814;28;20681;-45
2024/03/12 06:03:50;;;;;;;7.28;5.13;;;21.20;99.90;;;;;;5034284;28;20081;-45
2024/03/12 06:06:17;;;;;;;7.60;4.53;;;21.10;99.90;;;;;;5017499;28;20485;-45
2024/03/12 06:08:47;;;;;;;9.77;5.90;;;21.10;99.90;;;;;;5033806;28;20068;-46
2024/03/12 06:11:13;;;;;;;7.50;5.30;;;21.20;99.90;;;;;;5051672;28;20029;-46
2024/03/12 06:13:39;;;;;;;9.68;5.88;;;21.10;99.90;;;;;;5051680;28;20036;-45
2024/03/12 06:16:06;;;;;;;9.00;5.05;;;21.10;99.90;;;;;;5051638;28;20018;-45
2024/03/12 06:18:32;;;;;;;9.37;5.87;;;21.10;99.90;;;;;;5051620;28;20504;-46
2024/03/12 06:20:58;;;;;;;10.80;6.10;;;21.10;99.90;;;;;;5051599;28;20029;-46
2024/03/12 06:23:25;;;;;;;7.38;5.55;;;21.10;99.90;;;;;;5050452;28;20091;-46
2024/03/12 06:25:51;;;;;;;9.02;5.38;;;21.00;99.90;;;;;;5033825;28;20032;-46
2024/03/12 06:28:21;;;;;;;9.07;5.35;;;21.10;99.90;;;;;;5051505;28;20040;-46
2024/03/12 06:30:48;;;;;;;14.13;6.53;;;21.00;99.90;;;;;;5051778;28;20028;-46
2024/03/12 06:33:17;;;;;;;9.80;5.90;;;21.10;99.90;;;;;;5055225;28;20514;-46
2024/03/12 06:35:47;;;;;;;8.98;5.57;;;21.10;99.90;;;;;;5055194;28;20036;-46
2024/03/12 06:38:13;;;;;;;8.75;5.72;;;21.00;99.90;;;;;;5037139;28;20512;-45
2024/03/12 06:40:39;;;;;;;8.77;6.22;;;21.00;99.90;;;;;;5037041;28;20470;-45
2024/03/12 06:43:05;;;;;;;11.23;6.97;;;21.00;99.90;;;;;;5037034;28;20064;-45
2024/03/12 06:45:31;;;;;;;12.48;5.90;;;21.00;99.90;;;;;;5036899;28;20481;-46
2024/03/12 06:47:57;;;;;;;12.63;6.15;;;21.00;99.90;;;;;;5054901;28;20473;-46
2024/03/12 06:50:25;;;;;;;9.55;5.97;;;21.00;99.90;;;;;;5055160;28;20096;-45
2024/03/12 06:52:55;;;;;;;9.93;6.72;;;21.00;99.90;;;;;;5055081;28;20079;-45
2024/03/12 06:55:24;;;;;;;13.18;6.55;;;21.00;99.90;;;;;;5054991;28;20357;-45
2024/03/12 06:57:59;;;;;;;8.82;5.55;;;21.00;99.90;;;;;;5055107;28;20389;-45
2024/03/12 07:00:40;;;;;;;10.57;7.10;;;21.00;99.90;;;;;;5054611;28;20029;-44
2024/03/12 07:03:09;;;;;;;11.45;6.60;;;21.00;99.90;;;;;;5054630;28;20047;-45
2024/03/12 07:05:37;;;;;;;9.90;6.03;;;21.00;99.90;;;;;;5054627;28;20031;-45
2024/03/12 07:08:06;;;;;;;10.75;6.07;;;21.00;99.90;;;;;;5054397;28;20033;-46
2024/03/12 07:10:38;;;;;;;8.40;5.93;;;21.00;99.90;;;;;;5036634;28;20090;-46
2024/03/12 07:13:07;;;;;;;11.38;5.75;;;21.00;99.90;;;;;;5036975;28;20025;-45
2024/03/12 07:15:34;;;;;;;8.88;5.85;;;21.00;99.90;;;;;;5054553;28;20021;-46
2024/03/12 07:18:00;;;;;;;11.13;7.10;;;21.00;99.90;;;;;;5036800;28;20025;-46
2024/03/12 07:20:27;;;;;;;10.15;6.88;;;21.00;99.90;;;;;;5054448;28;20081;-45
2024/03/12 07:22:54;;;;;;;11.02;7.25;;;21.00;99.90;;;;;;5054510;28;20075;-46
2024/03/12 07:25:20;;;;;;;10.35;6.85;;;21.00;99.90;;;;;;5054114;28;20496;-46
2024/03/12 07:27:46;;;;;;;11.20;6.43;;;21.00;99.90;;;;;;5054267;28;20052;-46
2024/03/12 07:30:15;;;;;;;10.43;6.20;;;21.00;99.90;;;;;;5054264;28;20052;-46
2024/03/12 07:32:42;;;;;;;11.20;6.80;;;21.00;99.90;;;;;;5036390;28;20063;-46
2024/03/12 07:35:08;;;;;;;13.35;6.90;;;21.00;99.90;;;;;;5054093;28;20385;-45
2024/03/12 07:37:39;;;;;;;10.45;6.50;;;21.00;99.90;;;;;;5054217;28;20063;-46
2024/03/12 07:40:09;;;;;;;11.05;6.32;;;21.00;99.90;;;;;;5036106;28;20075;-46
2024/03/12 07:42:41;;;;;;;12.07;6.38;;;21.00;99.90;;;;;;5053052;28;20028;-46
2024/03/12 07:45:09;;;;;;;10.80;6.68;;;21.00;99.90;;;;;;5053996;28;20114;-45
2024/03/12 07:47:35;;;;;;;12.07;6.45;;;21.00;99.90;;;;;;5053719;28;20027;-46
2024/03/12 07:50:02;;;;;;;10.50;6.63;;;21.00;99.90;;;;;;5052433;28;20039;-46
2024/03/12 07:52:29;;;;;;;9.23;6.05;;;21.10;99.90;;;;;;5036099;28;20029;-46
2024/03/12 07:54:56;;;;;;;12.70;7.15;;;21.10;99.90;;;;;;5053941;28;20025;-45
2024/03/12 07:57:22;;;;;;;10.40;6.28;;;21.10;99.90;;;;;;5053699;28;20385;-46
2024/03/12 07:59:48;;;;;;;12.48;6.78;;;21.10;99.90;;;;;;5053685;28;21079;-45
2024/03/12 08:02:19;;;;;;;11.30;6.80;;;21.10;99.90;;;;;;5053237;28;20128;-46
2024/03/12 08:04:44;;;;;;;8.57;6.18;;;21.10;99.90;;;;;;5053521;28;20469;-46
2024/03/12 08:07:14;;;;;;;9.73;5.80;;;21.10;99.90;;;;;;5053444;28;20078;-45
2024/03/12 08:09:42;;;;;;;8.80;6.10;;;21.10;99.90;;;;;;5053508;28;20040;-46
2024/03/12 08:12:12;;;;;;;10.07;6.53;;;21.10;99.90;;;;;;5053285;28;20028;-45
2024/03/12 08:14:39;;;;;;;10.98;6.00;;;21.10;99.90;;;;;;5053126;28;20025;-46
2024/03/12 08:17:07;;;;;;;8.85;6.30;;;21.10;99.90;;;;;;5053243;28;20062;-45
2024/03/12 08:19:34;;;;;;;10.48;6.88;;;21.10;99.90;;;;;;5053160;28;20040;-45
2024/03/12 08:22:02;;;;;;;8.75;5.70;;;21.10;99.90;;;;;;5053127;28;20104;-45
2024/03/12 08:24:29;;;;;;;;;;;21.10;99.90;;;;;;5053592;28;20029;-46
2024/03/12 08:26:56;;;;;;;13.57;7.03;;;21.10;99.90;;;;;;5053030;28;19913;-46
2024/03/12 08:29:22;;;;;;;12.60;6.57;;;21.10;99.90;;;;;;5053308;28;20195;-45
2024/03/12 08:31:48;;;;;;;9.85;6.35;;;21.20;99.90;;;;;;5035255;28;20068;-45
2024/03/12 08:34:15;;;;;;;12.88;6.75;;;21.20;99.90;;;;;;5052878;28;20029;-45
2024/03/12 08:36:43;;;;;;;11.27;5.90;;;21.20;99.90;;;;;;5052786;28;20033;-45
2024/03/12 08:39:12;;;;;;;9.30;5.93;;;21.10;99.90;;;;;;5052924;28;20048;-46
2024/03/12 08:41:41;;;;;;;10.77;5.75;;;21.10;99.90;;;;;;5052823;28;20565;-46
2024/03/12 08:44:08;;;;;;;9.98;5.93;;;21.10;99.90;;;;;;5052773;28;20035;-46
2024/03/12 08:46:34;;;;;;;11.38;6.15;;;21.20;99.90;;;;;;5034700;28;20044;-46
2024/03/12 08:49:00;;;;;;;11.55;6.85;;;21.20;99.90;;;;;;5034918;28;20024;-46
2024/03/12 08:51:33;;;;;;;12.30;5.93;;;21.20;99.90;;;;;;5034782;28;20036;-45
2024/03/12 08:53:59;;;;;;;7.75;6.13;;;21.20;99.90;;;;;;5052685;28;20017;-45
2024/03/12 08:56:25;;;;;;;11.13;6.55;;;21.20;99.90;;;;;;5052322;28;20420;-46
2024/03/12 08:58:51;;;;;;;12.65;6.40;;;21.20;99.90;;;;;;5052592;28;20028;-46
2024/03/12 09:01:18;;;;;;;10.20;6.28;;;21.20;99.90;;;;;;5052322;28;20501;-46
2024/03/12 09:03:43;;;;;;;11.73;6.50;;;21.20;99.90;;;;;;5052469;28;20416;-46
2024/03/12 09:06:09;;;;;;;9.70;5.20;;;21.20;99.90;;;;;;5052355;28;20079;-46
2024/03/12 09:08:39;;;;;;;10.00;6.45;;;21.20;99.90;;;;;;5052263;28;20047;-45
2024/03/12 09:11:05;;;;;;;9.85;6.10;;;21.20;99.90;;;;;;5034979;28;20035;-46
2024/03/12 09:13:31;;;;;;;7.85;5.53;;;21.20;99.90;;;;;;5052493;28;20033;-45
2024/03/12 09:15:57;;;;;;;10.73;6.28;;;21.20;99.90;;;;;;5052230;28;20090;-46
2024/03/12 09:18:23;;;;;;;10.10;5.90;;;21.20;99.90;;;;;;5052293;28;20167;-45
2024/03/12 09:20:49;;;;;;;7.28;4.80;;;21.30;99.90;;;;;;5052072;28;20096;-46
2024/03/12 09:23:18;;;;;;;8.85;5.75;;;21.30;99.90;;;;;;5052005;28;20067;-46
2024/03/12 09:25:45;;;;;;;8.85;5.68;;;21.30;99.90;;;;;;5034775;28;20028;-46
2024/03/12 09:28:11;;;;;;;11.10;5.45;;;21.30;99.90;;;;;;5052063;28;20021;-46
2024/03/12 09:30:38;;;;;;;10.52;5.93;;;21.30;99.90;;;;;;5051948;28;20013;-45
2024/03/12 09:33:04;;;;;;;12.85;6.03;;;21.30;99.90;;;;;;5052115;28;20087;-45
2024/03/12 09:35:30;;;;;;;9.65;6.18;;;21.30;99.90;;;;;;5052204;28;20025;-45
2024/03/12 09:37:56;;;;;;;11.50;6.28;;;21.30;99.90;;;;;;5051776;28;20021;-45
2024/03/12 09:40:22;;;;;;;10.05;6.20;;;21.40;99.90;;;;;;5051790;28;20033;-45
2024/03/12 09:42:49;;;;;;;8.57;5.60;;;21.40;99.90;;;;;;5051914;28;20021;-46
2024/03/12 09:45:15;;;;;;;10.35;6.78;;;21.30;99.90;;;;;;5051852;28;20385;-46
2024/03/12 09:47:44;;;;;;;9.70;5.88;;;21.40;99.90;;;;;;5051775;28;20084;-46
2024/03/12 09:50:14;;;;;;;8.85;6.40;;;21.40;99.90;;;;;;5051936;28;20481;-46
2024/03/12 09:52:42;;;;;;;14.05;6.72;;;21.40;99.90;;;;;;5033832;28;20124;-46
2024/03/12 09:55:13;;;;;;;9.90;5.80;;;21.40;99.90;;;;;;5033844;28;20112;-45
2024/03/12 09:57:41;;;;;;;8.90;6.50;;;21.40;99.90;;;;;;5051800;28;20043;-45
2024/03/12 10:00:12;;;;;;;12.13;6.57;;;21.40;99.90;;;;;;5033823;28;20025;-45
2024/03/12 10:02:38;;;;;;;10.18;6.50;;;21.50;99.90;;;;;;5051429;28;20053;-45
2024/03/12 10:05:04;;;;;;;10.00;6.30;;;21.50;99.90;;;;;;5050461;28;20029;-45
2024/03/12 10:07:30;;;;;;;9.23;5.68;;;21.50;99.90;;;;;;5055077;28;20485;-46
2024/03/12 10:09:56;;;;;;;10.90;6.10;;;21.60;99.90;;;;;;5055669;28;20025;-47
2024/03/12 10:12:22;;;;;;;10.00;5.85;;;21.60;99.90;;;;;;5021230;28;20032;-46
2024/03/12 10:14:48;;;;;;;9.88;5.85;;;21.60;99.90;;;;;;5055436;28;20483;-46
2024/03/12 10:17:15;;;;;;;8.98;6.28;;;21.70;99.90;;;;;;5055383;28;20033;-46
2024/03/12 10:19:48;;;;;;;13.18;7.70;;;21.70;99.90;;;;;;5055325;28;20319;-46
2024/03/12 10:22:23;;;;;;;9.93;6.50;;;21.70;99.90;;;;;;5055449;28;20027;-47
2024/03/12 10:24:49;;;;;;;10.82;6.85;;;21.80;99.90;;;;;;5055326;28;20029;-46
2024/03/12 10:27:16;;;;;;;11.65;7.03;;;21.80;99.90;;;;;;5055212;28;20029;-47
2024/03/12 10:29:42;;;;;;;11.50;7.30;;;21.80;99.90;;;;;;5055271;28;20025;-46
2024/03/12 10:32:21;;;;;;;12.30;7.65;;;21.80;99.90;;;;;;5055079;28;20555;-46
2024/03/12 10:34:48;;;;;;;9.10;6.70;;;21.90;99.90;;;;;;5055169;28;20120;-46
2024/03/12 10:37:26;;;;;;;12.18;6.25;;;21.90;99.90;;;;;;5037183;28;20028;-47
2024/03/12 10:39:52;;;;;;;9.57;6.65;;;21.90;99.90;;;;;;5037167;28;20029;-46
2024/03/12 10:42:25;;;;;;;10.25;6.30;;;22.00;99.90;;;;;;5054935;28;20040;-46
2024/03/12 10:44:51;;;;;;;12.57;7.13;;;22.00;99.90;;;;;;5054975;28;20025;-46
2024/03/12 10:47:18;;;;;;;9.45;7.00;;;22.00;99.90;;;;;;5020335;28;20485;-46
2024/03/12 10:49:48;;;;;;;11.10;6.13;;;22.00;99.90;;;;;;5055030;28;20076;-47
2024/03/12 10:52:21;;;;;;;12.25;7.07;;;22.10;99.90;;;;;;5037301;28;20052;-46
2024/03/12 10:54:47;;;;;;;10.45;7.03;;;22.00;99.90;;;;;;5054811;28;20029;-47
2024/03/12 10:57:13;;;;;;;11.38;6.78;;;22.10;99.90;;;;;;5054818;28;20036;-46
2024/03/12 10:59:39;;;;;;;8.98;6.65;;;22.10;99.90;;;;;;5020266;28;20025;-46
2024/03/12 11:02:08;;;;;;;9.73;6.28;;;22.20;99.90;;;;;;5054726;28;20057;-46
2024/03/12 11:04:35;;;;;;;10.57;6.88;;;22.20;99.90;;;;;;5054901;28;20017;-46
2024/03/12 11:07:03;;;;;;;10.10;6.25;;;22.20;99.90;;;;;;5054613;28;20082;-46
2024/03/12 11:09:32;;;;;;;10.02;6.43;;;22.20;99.90;;;;;;5037062;28;20032;-46
2024/03/12 11:11:59;;;;;;;16.40;6.35;;;22.20;99.90;;;;;;5036681;28;20470;-46
2024/03/12 11:14:28;;;;;;;11.98;6.30;;;22.30;99.90;;;;;;5054420;28;20032;-47
2024/03/12 11:16:54;;;;;;;11.35;6.65;;;22.30;99.90;;;;;;5053730;28;20061;-47
2024/03/12 11:19:24;;;;;;;15.25;7.10;;;22.30;99.90;;;;;;5053612;28;20017;-46
2024/03/12 11:21:59;;;;;;;10.27;6.60;;;22.40;99.90;;;;;;5054126;28;20025;-46
2024/03/12 11:24:42;;;;;;;14.57;6.22;;;22.40;99.90;;;;;;5037352;28;20389;-45
2024/03/12 11:27:25;;;;;;;9.80;6.18;;;22.40;99.90;;;;;;5036376;28;20405;-45
2024/03/12 11:30:04;;;;;;;9.73;6.47;;;22.40;99.90;;;;;;5054068;28;20056;-46
2024/03/12 11:32:42;;;;;;;32.72;6.35;;;22.40;99.90;;;;;;5054109;28;20478;-47
2024/03/12 11:35:17;;;;;;;17.38;6.43;;;22.50;99.90;;;;;;5054494;28;20541;-46
2024/03/12 11:37:47;;;;;;;11.35;6.05;;;22.50;99.90;;;;;;5054074;28;20393;-47
2024/03/12 11:40:27;;;;;;;12.32;6.35;;;22.50;99.90;;;;;;5053919;28;20021;-45
2024/03/12 11:42:57;;;;;;;10.10;6.07;;;22.50;99.90;;;;;;5053873;28;20392;-46
2024/03/12 11:45:46;;;;;;;11.68;6.05;;;22.60;99.90;;;;;;5053690;28;20031;-46
2024/03/12 11:48:18;;;;;;;9.10;6.03;;;22.60;99.90;;;;;;5054080;28;20111;-47
2024/03/12 11:50:50;;;;;;;12.70;6.43;;;22.70;99.90;;;;;;5053877;28;20025;-46
2024/03/12 11:53:23;;;;;;;11.55;6.70;;;22.70;99.90;;;;;;5053582;28;20493;-44
2024/03/12 11:56:00;;;;;;;11.70;6.13;;;22.70;99.90;;;;;;5053923;28;20029;-47
2024/03/12 11:58:31;;;;;;;15.15;6.50;;;22.70;99.90;;;;;;5053574;28;20061;-46
2024/03/12 12:01:02;;;;;;;14.85;5.90;;;22.80;99.90;;;;;;5053562;28;20051;-47
2024/03/12 12:03:28;;;;;;;12.95;7.20;;;22.80;99.90;;;;;;5044430;28;20108;-46
2024/03/12 12:05:54;;;;;;;10.40;5.85;;;22.80;99.90;;;;;;5023651;28;20111;-45
2024/03/12 12:08:24;;;;;;;12.97;6.33;;;22.80;99.90;;;;;;5039868;28;20083;-46
2024/03/12 12:11:03;;;;;;;14.35;6.30;;;22.90;99.90;;;;;;5042525;28;20029;-45
2024/03/12 12:13:32;;;;;;;10.35;6.70;;;22.90;99.90;;;;;;5045102;28;20024;-46
2024/03/12 12:16:04;;;;;;;14.52;6.32;;;22.90;99.90;;;;;;5043121;28;20425;-46
2024/03/12 12:18:31;;;;;;;12.60;6.43;;;22.90;99.90;;;;;;5042910;28;20028;-45
2024/03/12 12:21:02;;;;;;;15.00;6.90;;;22.90;99.90;;;;;;5052826;28;20384;-45
2024/03/12 12:23:29;;;;;;;13.82;5.85;;;23.00;99.90;;;;;;5053421;28;20393;-45
2024/03/12 12:25:57;;;;;;;12.00;6.33;;;23.00;99.90;;;;;;5052902;28;20029;-44
2024/03/12 12:28:24;;;;;;;;;;;23.00;99.90;;;;;;5053353;28;20697;-45
2024/03/12 12:30:52;;;;;;;10.93;6.50;;;23.00;99.90;;;;;;5052673;28;19905;-44
2024/03/12 12:33:19;;;;;;;10.55;6.25;;;23.10;99.90;;;;;;5053145;28;20071;-45
2024/03/12 12:35:47;;;;;;;10.50;5.77;;;23.10;99.90;;;;;;5052979;28;20103;-45
2024/03/12 12:38:16;;;;;;;12.60;5.70;;;23.10;99.90;;;;;;5053364;28;20102;-44
2024/03/12 12:40:46;;;;;;;9.27;5.50;;;23.10;99.90;;;;;;5053259;28;20036;-45
2024/03/12 12:43:17;;;;;;;10.27;5.95;;;23.10;99.90;;;;;;5053089;28;20044;-45
2024/03/12 12:45:46;;;;;;;9.95;5.63;;;23.10;99.90;;;;;;5053129;28;20029;-45
2024/03/12 12:48:16;;;;;;;12.57;6.15;;;23.20;99.90;;;;;;5052424;28;20029;-45
2024/03/12 12:50:43;;;;;;;12.75;6.60;;;23.20;99.90;;;;;;5023509;28;20124;-45
2024/03/12 12:53:09;;;;;;;14.15;6.72;;;23.20;99.90;;;;;;5043015;28;20021;-45
2024/03/12 12:55:39;;;;;;;13.98;5.95;;;23.20;99.90;;;;;;5024668;28;20525;-45